createdAt,value
2022-10-21T00:02:47.439Z,100.00
2022-10-21T00:06:48.768Z,100.00
2022-10-21T00:11:00.729Z,100.00
2022-10-21T00:15:03.337Z,100.00
2022-10-21T00:19:04.755Z,100.00
2022-10-21T00:23:06.062Z,100.00
2022-10-21T00:27:07.698Z,100.00
2022-10-21T00:31:10.833Z,100.00
2022-10-21T00:35:12.574Z,100.00
2022-10-21T00:39:23.536Z,100.00
2022-10-21T01:12:03.238Z,100.00
2022-10-21T01:16:23.035Z,100.00
2022-10-21T01:20:43.577Z,100.00
2022-10-21T01:24:53.857Z,100.00
2022-10-21T01:28:56.591Z,100.00
2022-10-21T01:33:06.996Z,100.00
2022-10-21T01:37:38.957Z,100.00
2022-10-21T01:41:51.908Z,100.00
2022-10-21T01:46:01.091Z,100.00
2022-10-21T01:50:23.293Z,100.00
2022-10-21T01:54:29.829Z,100.00
2022-10-21T01:58:34.245Z,100.00
2022-10-21T02:02:38.994Z,100.00
2022-10-21T02:06:41.112Z,100.00
2022-10-21T02:10:45.565Z,100.00
2022-10-21T02:14:50.412Z,100.00
2022-10-21T02:18:51.981Z,100.00
2022-10-21T02:22:53.349Z,100.00
2022-10-21T02:26:55.111Z,100.00
2022-10-21T02:31:02.388Z,100.00
2022-10-21T02:35:10.188Z,100.00
2022-10-21T02:39:19.160Z,100.00
2022-10-21T02:43:46.748Z,100.00
2022-10-21T02:47:49.700Z,100.00
2022-10-21T02:51:51.260Z,100.00
2022-10-21T02:55:52.577Z,100.00
2022-10-21T02:59:53.861Z,100.00
2022-10-21T03:03:55.262Z,100.00
2022-10-21T03:07:56.565Z,100.00
2022-10-21T03:11:58.259Z,100.00
2022-10-21T03:15:59.537Z,100.00
2022-10-21T03:20:00.862Z,100.00
2022-10-21T03:24:02.608Z,100.00
2022-10-21T03:28:05.461Z,100.00
2022-10-21T03:32:06.743Z,100.00
2022-10-21T03:36:08.166Z,100.00
2022-10-21T03:40:12.277Z,100.00
2022-10-21T03:44:14.010Z,100.00
2022-10-21T03:48:15.312Z,100.00
2022-10-21T03:52:17.472Z,100.00
2022-10-21T03:56:18.756Z,100.00
2022-10-21T04:00:20.383Z,100.00
2022-10-21T04:04:21.969Z,100.00
2022-10-21T04:08:23.975Z,100.00
2022-10-21T04:12:25.570Z,100.00
2022-10-21T04:16:27.053Z,100.00
2022-10-21T04:20:28.377Z,100.00
2022-10-21T04:24:30.070Z,100.00
2022-10-21T04:28:31.659Z,100.00
2022-10-21T04:32:33.500Z,100.00
2022-10-21T04:36:34.866Z,100.00
2022-10-21T04:40:36.204Z,100.00
2022-10-21T04:44:39.581Z,100.00
2022-10-21T04:48:41.060Z,100.00
2022-10-21T04:52:42.743Z,100.00
2022-10-21T04:56:44.392Z,100.00
2022-10-21T05:00:46.259Z,100.00
2022-10-21T05:04:48.440Z,100.00
2022-10-21T05:08:51.774Z,100.00
2022-10-21T05:13:06.032Z,100.00
2022-10-21T05:17:18.009Z,100.00
2022-10-21T05:25:48.852Z,100.00
2022-10-21T05:30:13.906Z,100.00
2022-10-21T05:38:42.760Z,100.00
2022-10-21T05:42:47.405Z,100.00
2022-10-21T05:47:21.081Z,100.00
2022-10-21T05:51:26.176Z,100.00
2022-10-21T05:55:28.180Z,100.00
2022-10-21T05:59:30.976Z,100.00
2022-10-21T06:03:32.943Z,100.00
2022-10-21T06:07:34.302Z,100.00
2022-10-21T06:11:35.619Z,100.00
2022-10-21T06:15:37.130Z,100.00
2022-10-21T06:19:38.759Z,100.00
2022-10-21T06:23:40.122Z,100.00
2022-10-21T06:27:41.703Z,100.00
2022-10-21T06:31:43.815Z,100.00
2022-10-21T06:35:45.492Z,100.00
2022-10-21T06:39:46.746Z,100.00
2022-10-21T06:43:48.373Z,100.00
2022-10-21T06:47:49.742Z,100.00
2022-10-21T06:51:51.106Z,100.00
2022-10-21T06:55:59.988Z,100.00
2022-10-21T07:00:01.414Z,100.00
2022-10-21T07:04:03.601Z,100.00
2022-10-21T07:08:06.568Z,100.00
2022-10-21T07:12:08.650Z,100.00
2022-10-21T07:16:22.020Z,100.00
2022-10-21T07:20:23.246Z,100.00
2022-10-21T07:24:25.373Z,100.00
2022-10-21T07:28:26.672Z,100.00
2022-10-21T07:32:28.252Z,100.00
2022-10-21T07:36:30.986Z,100.00
2022-10-21T07:40:32.441Z,100.00
2022-10-21T07:44:33.777Z,100.00
2022-10-21T07:48:35.356Z,100.00
2022-10-21T07:52:41.558Z,100.00
2022-10-21T07:56:49.422Z,100.00
2022-10-21T08:00:51.573Z,100.00
2022-10-21T08:04:59.528Z,100.00
2022-10-21T08:09:06.994Z,100.00
2022-10-21T08:13:10.353Z,100.00
2022-10-21T08:17:33.619Z,100.00
2022-10-21T08:22:16.969Z,100.00
2022-10-21T08:26:41.815Z,100.00
2022-10-21T08:30:43.664Z,100.00
2022-10-21T08:34:45.022Z,100.00
2022-10-21T08:38:46.778Z,100.00
2022-10-21T08:42:48.481Z,100.00
2022-10-21T08:46:53.639Z,100.00
2022-10-21T08:50:56.156Z,100.00
2022-10-21T08:55:02.366Z,100.00
2022-10-21T08:59:03.606Z,100.00
2022-10-21T09:03:11.506Z,100.00
2022-10-21T09:07:12.818Z,100.00
2022-10-21T09:11:34.387Z,100.00
2022-10-21T09:15:54.772Z,100.00
2022-10-21T09:20:09.183Z,100.00
2022-10-21T09:24:12.914Z,100.00
2022-10-21T09:28:15.168Z,100.00
2022-10-21T09:32:31.704Z,100.00
2022-10-21T09:36:37.741Z,100.00
2022-10-21T09:40:38.988Z,100.00
2022-10-21T09:44:40.573Z,100.00
2022-10-21T09:49:08.253Z,100.00
2022-10-21T09:53:08.137Z,100.00
2022-10-21T09:57:24.076Z,100.00
2022-10-21T10:01:25.381Z,100.00
2022-10-21T10:05:33.978Z,100.00
2022-10-21T10:09:37.126Z,100.00
2022-10-21T10:13:41.289Z,100.00
2022-10-21T10:17:42.549Z,100.00
2022-10-21T10:21:44.671Z,100.00
2022-10-21T10:25:49.921Z,100.00
2022-10-21T10:29:55.982Z,100.00
2022-10-21T10:34:03.935Z,100.00
2022-10-21T10:38:05.803Z,100.00
2022-10-21T10:42:07.492Z,100.00
2022-10-21T10:46:11.977Z,100.00
2022-10-21T10:50:32.181Z,100.00
2022-10-21T10:54:34.065Z,100.00
2022-10-21T10:58:36.718Z,100.00
2022-10-21T11:03:08.169Z,95.20
2022-10-21T11:07:13.564Z,94.52
2022-10-21T11:11:24.875Z,95.21
2022-10-21T11:15:34.909Z,93.85
2022-10-21T11:19:45.708Z,94.48
2022-10-21T11:23:47.331Z,93.91
2022-10-21T11:27:51.630Z,95.03
2022-10-21T11:32:12.461Z,92.40
2022-10-21T11:36:20.241Z,90.87
2022-10-21T11:40:21.583Z,92.42
2022-10-21T11:44:41.665Z,92.06
2022-10-21T11:49:01.955Z,90.40
2022-10-21T11:53:21.874Z,90.38
2022-10-21T11:57:28.200Z,90.52
2022-10-21T12:01:37.862Z,90.02
2022-10-21T12:05:47.568Z,90.10
2022-10-21T12:09:55.809Z,88.19
2022-10-21T12:14:06.607Z,88.49
2022-10-21T12:18:12.907Z,87.20
2022-10-21T12:22:14.476Z,87.86
2022-10-21T12:26:40.397Z,85.85
2022-10-21T12:30:56.586Z,85.01
2022-10-21T12:35:01.238Z,83.55
2022-10-21T12:39:02.622Z,83.72
2022-10-21T12:43:03.860Z,82.70
2022-10-21T12:47:22.025Z,83.28
2022-10-21T12:51:25.749Z,80.14
2022-10-21T12:55:28.252Z,82.41
2022-10-21T12:59:37.280Z,80.70
2022-10-21T13:03:44.682Z,81.20
2022-10-21T13:08:05.922Z,79.08
2022-10-21T13:12:10.189Z,80.45
2022-10-21T13:16:21.086Z,79.75
2022-10-21T13:20:22.577Z,80.98
2022-10-21T13:24:31.515Z,80.94
2022-10-21T13:28:34.441Z,79.91
2022-10-21T13:32:39.307Z,81.36
2022-10-21T13:36:43.837Z,80.87
2022-10-21T13:40:47.611Z,82.23
2022-10-21T13:44:53.336Z,81.08
2022-10-21T13:48:54.841Z,82.29
2022-10-21T13:52:56.281Z,81.84
2022-10-21T13:57:05.614Z,81.33
2022-10-21T14:01:08.303Z,81.80
2022-10-21T14:05:26.039Z,80.85
2022-10-21T14:09:29.120Z,81.37
2022-10-21T14:13:35.646Z,80.98
2022-10-21T14:17:39.826Z,81.57
2022-10-21T14:21:43.956Z,82.85
2022-10-21T14:25:47.704Z,83.77
2022-10-21T14:29:49.289Z,84.17
2022-10-21T14:33:50.712Z,83.94
2022-10-21T14:37:54.812Z,83.71
2022-10-21T14:42:01.547Z,83.99
2022-10-21T14:46:04.937Z,85.32
2022-10-21T14:50:06.986Z,86.11
2022-10-21T14:54:25.263Z,86.93
2022-10-21T14:58:32.981Z,87.38
2022-10-21T15:02:35.897Z,87.03
2022-10-21T15:06:37.692Z,87.32
2022-10-21T15:10:38.935Z,87.68
2022-10-21T15:14:40.446Z,88.54
2022-10-21T15:18:52.689Z,88.79
2022-10-21T15:22:54.661Z,89.34
2022-10-21T15:26:58.273Z,90.83
2022-10-21T15:31:00.000Z,91.70
2022-10-21T15:35:01.275Z,92.32
2022-10-21T15:39:05.440Z,92.76
2022-10-21T15:43:10.533Z,93.28
2022-10-21T15:47:12.244Z,93.88
2022-10-21T15:51:13.731Z,94.00
2022-10-21T15:55:15.147Z,94.49
2022-10-21T15:59:17.933Z,94.48
2022-10-21T16:03:19.204Z,94.78
2022-10-21T16:07:22.140Z,95.04
2022-10-21T16:11:34.752Z,95.42
2022-10-21T16:15:42.630Z,96.12
2022-10-21T16:19:44.428Z,96.60
2022-10-21T16:23:45.752Z,97.24
2022-10-21T16:27:56.492Z,97.64
2022-10-21T16:31:57.978Z,98.35
2022-10-21T16:35:59.651Z,98.96
2022-10-21T16:40:02.099Z,99.04
2022-10-21T16:44:03.473Z,99.17
2022-10-21T16:48:04.935Z,99.50
2022-10-21T16:52:06.597Z,99.58
2022-10-21T16:56:08.244Z,99.90
2022-10-21T17:00:14.011Z,100.00
2022-10-21T17:04:15.582Z,100.00
2022-10-21T17:08:16.932Z,100.00
2022-10-21T17:12:18.257Z,100.00
2022-10-21T17:16:20.495Z,100.00
2022-10-21T17:20:21.923Z,100.00
2022-10-21T17:24:23.199Z,100.00
2022-10-21T17:28:24.689Z,100.00
2022-10-21T17:32:26.122Z,100.00
2022-10-21T17:36:27.613Z,100.00
2022-10-21T17:40:29.551Z,100.00
2022-10-21T17:44:30.783Z,100.00
2022-10-21T17:48:32.760Z,100.00
2022-10-21T17:52:34.526Z,100.00
2022-10-21T17:56:36.078Z,100.00
2022-10-21T18:00:42.388Z,100.00
2022-10-21T18:04:46.204Z,100.00
2022-10-21T18:08:47.688Z,100.00
2022-10-21T18:12:49.151Z,100.00
2022-10-21T18:16:50.478Z,100.00
2022-10-21T18:20:51.923Z,100.00
2022-10-21T18:24:53.198Z,100.00
2022-10-21T18:28:57.353Z,100.00
2022-10-21T18:32:58.861Z,100.00
2022-10-21T18:37:01.205Z,100.00
2022-10-21T18:41:19.425Z,100.00
2022-10-21T18:45:21.702Z,100.00
2022-10-21T18:49:22.997Z,100.00
2022-10-21T18:53:24.596Z,100.00
2022-10-21T18:57:25.947Z,100.00
2022-10-21T19:01:27.306Z,100.00
2022-10-21T19:05:28.701Z,100.00
2022-10-21T19:09:30.009Z,100.00
2022-10-21T19:13:31.321Z,100.00
2022-10-21T19:17:32.873Z,100.00
2022-10-21T19:21:34.153Z,100.00
2022-10-21T19:25:35.473Z,100.00
2022-10-21T19:29:36.861Z,100.00
2022-10-21T19:33:38.741Z,100.00
2022-10-21T19:37:40.049Z,100.00
2022-10-21T19:41:42.053Z,100.00
2022-10-21T19:45:43.436Z,100.00
2022-10-21T19:49:44.768Z,100.00
2022-10-21T19:53:46.634Z,100.00
2022-10-21T19:57:47.956Z,100.00
2022-10-21T20:01:49.339Z,100.00
2022-10-21T20:05:50.665Z,100.00
2022-10-21T20:09:51.969Z,100.00
2022-10-21T20:13:53.481Z,100.00
2022-10-21T20:17:54.804Z,100.00
2022-10-21T20:21:56.104Z,100.00
2022-10-21T20:25:58.203Z,100.00
2022-10-21T20:29:59.521Z,100.00
2022-10-21T20:34:01.044Z,100.00
2022-10-21T20:38:02.612Z,100.00
2022-10-21T20:42:03.948Z,100.00
2022-10-21T20:46:06.360Z,100.00
2022-10-21T20:50:07.850Z,100.00
2022-10-21T20:54:11.640Z,100.00
2022-10-21T20:58:12.966Z,100.00
2022-10-21T21:02:14.421Z,100.00
2022-10-21T21:06:15.761Z,100.00
2022-10-21T21:10:17.333Z,100.00
2022-10-21T21:14:19.133Z,100.00
2022-10-21T21:18:20.579Z,100.00
2022-10-21T21:22:22.028Z,100.00
2022-10-21T21:26:25.343Z,100.00
2022-10-21T21:30:27.213Z,100.00
2022-10-21T21:34:29.489Z,100.00
2022-10-21T21:38:31.966Z,100.00
2022-10-21T21:42:33.292Z,100.00
2022-10-21T21:46:34.959Z,100.00
2022-10-21T21:50:36.281Z,100.00
2022-10-21T21:54:37.547Z,100.00
2022-10-21T21:58:39.200Z,100.00
2022-10-21T22:02:40.457Z,100.00
2022-10-21T22:06:41.777Z,100.00
2022-10-21T22:10:43.117Z,100.00
2022-10-21T22:14:44.486Z,100.00
2022-10-21T22:18:45.813Z,100.00
2022-10-21T22:22:48.124Z,100.00
2022-10-21T22:26:49.445Z,100.00
2022-10-21T22:30:58.074Z,100.00
2022-10-21T22:34:59.401Z,100.00
2022-10-21T22:39:00.797Z,100.00
2022-10-21T22:43:02.192Z,100.00
2022-10-21T22:47:03.921Z,100.00
2022-10-21T22:51:05.337Z,100.00
2022-10-21T22:55:07.206Z,100.00
2022-10-21T22:59:08.469Z,100.00
2022-10-21T23:03:10.125Z,100.00
2022-10-21T23:07:11.357Z,100.00
2022-10-21T23:11:12.619Z,100.00
2022-10-21T23:15:14.026Z,100.00
2022-10-21T23:19:15.665Z,100.00
2022-10-21T23:23:17.009Z,100.00
2022-10-21T23:27:18.317Z,100.00
2022-10-21T23:31:19.895Z,100.00
2022-10-21T23:35:21.665Z,100.00
2022-10-21T23:39:22.974Z,100.00
2022-10-21T23:43:24.225Z,100.00
2022-10-21T23:47:25.535Z,100.00
2022-10-21T23:51:26.968Z,100.00
2022-10-21T23:59:35.388Z,100.00
